Lake San Marcos, California
Current Conditions -  °F | °C
As of 11:53 AM on Saturday 25 Oct 2014 (Local Time) from KCRQ Reporting Station
Clear Clear  
Wind Chill: 74°   Ceiling: Unl
Heat Index: 74°   Visibility: 10mi
Dew Point: 62°   Wind: 8mph
Humidity: 66%   Direction: 250°WSW
Pressure: 30.04"   Gusts: NA
Location:  33.1507°N, 117.174°W
Report Text: KCRQ 251853Z AUTO 25007KT 10SM CLR 23/17 A3004 RMK AO2 SLP169 T02330167 TSNO
Loading
Personal Weather Stations






























Interactive Weather Map
Tropical Storm Tracking
New forecast layout! Learn more

10-Day Weather Forecast

Advertisements
Track Severe Weather on mobile